Wylie's Hourly Summary for Thursday, July 5, 2018
Hour Temp
(f)
RH
(%)
Solar Rad.
(MJ/m2)
Rainfall
(in)
Wind
(mph)
7/5/2018 12:00 AM 80 66 0 0 6.69
7/5/2018 1:00 AM 78 70 0 0 4.08
7/5/2018 2:00 AM 77 73 0 0 0.58
7/5/2018 3:00 AM 76 73 0 0 0.92
7/5/2018 4:00 AM 75 76 0 0 0.96
7/5/2018 5:00 AM 75 78 0 0 1.44
7/5/2018 6:00 AM 73 79 0 0 0.24
7/5/2018 7:00 AM 74 80 0.03 0 1.18
7/5/2018 8:00 AM 75 75 0.41 0 1.2
7/5/2018 9:00 AM 79 67 1.08 0 2.4
7/5/2018 10:00 AM 81 63 1.63 0 2.4
7/5/2018 11:00 AM 84 57 2.37 0 2.18
7/5/2018 12:00 PM 87 52 2.85 0 3.37
7/5/2018 1:00 PM 88 52 3.1 0 4.22
7/5/2018 2:00 PM 91 47 3.22 0 3.54
7/5/2018 3:00 PM 92 43 3.36 0 4.54
7/5/2018 4:00 PM 94 40 2.9 0 4.37
7/5/2018 5:00 PM 94 39 2.48 0 5.15
7/5/2018 6:00 PM 95 37 1.7 0 4
7/5/2018 7:00 PM 92 42 0.61 0 6.65
7/5/2018 8:00 PM 87 47 0.27 0 6.8
7/5/2018 9:00 PM 86 57 0.05 0 5.58
7/5/2018 10:00 PM 85 63 0 0 3.93
7/5/2018 11:00 PM 84 64 0 0 4.07
Data Summary 83 60 26.06 0.00 3.35